sensor_id;sensor_type;location;lat;lon;timestamp;P1;durP1;ratioP1;P2;durP2;ratioP2
59161;SDS011;44942;48.936;8.260;2024-03-22T00:02:05;5.50;;;3.97;;
59161;SDS011;44942;48.936;8.260;2024-03-22T00:07:06;5.30;;;4.10;;
59161;SDS011;44942;48.936;8.260;2024-03-22T00:12:07;6.60;;;4.17;;
59161;SDS011;44942;48.936;8.260;2024-03-22T00:17:07;5.32;;;3.95;;
59161;SDS011;44942;48.936;8.260;2024-03-22T00:22:08;4.43;;;3.50;;
59161;SDS011;44942;48.936;8.260;2024-03-22T00:27:09;4.97;;;3.65;;
59161;SDS011;44942;48.936;8.260;2024-03-22T00:32:11;4.88;;;3.50;;
59161;SDS011;44942;48.936;8.260;2024-03-22T00:37:12;7.20;;;3.53;;
59161;SDS011;44942;48.936;8.260;2024-03-22T00:42:12;6.17;;;3.70;;
59161;SDS011;44942;48.936;8.260;2024-03-22T00:47:13;4.10;;;3.07;;
59161;SDS011;44942;48.936;8.260;2024-03-22T00:52:13;5.57;;;3.70;;
59161;SDS011;44942;48.936;8.260;2024-03-22T00:57:14;3.37;;;3.07;;
59161;SDS011;44942;48.936;8.260;2024-03-22T01:02:15;4.60;;;3.57;;
59161;SDS011;44942;48.936;8.260;2024-03-22T01:07:15;5.20;;;3.50;;
59161;SDS011;44942;48.936;8.260;2024-03-22T01:12:16;5.50;;;3.23;;
59161;SDS011;44942;48.936;8.260;2024-03-22T01:17:16;4.93;;;3.30;;
59161;SDS011;44942;48.936;8.260;2024-03-22T01:22:17;4.53;;;3.10;;
59161;SDS011;44942;48.936;8.260;2024-03-22T01:27:18;3.55;;;3.13;;
59161;SDS011;44942;48.936;8.260;2024-03-22T01:32:19;3.72;;;2.92;;
59161;SDS011;44942;48.936;8.260;2024-03-22T01:37:20;3.60;;;3.00;;
59161;SDS011;44942;48.936;8.260;2024-03-22T01:42:20;5.18;;;3.13;;
59161;SDS011;44942;48.936;8.260;2024-03-22T01:47:21;4.50;;;3.10;;
59161;SDS011;44942;48.936;8.260;2024-03-22T01:52:22;4.03;;;3.23;;
59161;SDS011;44942;48.936;8.260;2024-03-22T01:57:23;3.67;;;2.92;;
59161;SDS011;44942;48.936;8.260;2024-03-22T02:02:23;4.35;;;3.20;;
59161;SDS011;44942;48.936;8.260;2024-03-22T02:07:24;4.50;;;2.73;;
59161;SDS011;44942;48.936;8.260;2024-03-22T02:12:27;3.95;;;2.90;;
59161;SDS011;44942;48.936;8.260;2024-03-22T02:17:28;3.92;;;2.92;;
59161;SDS011;44942;48.936;8.260;2024-03-22T02:22:28;3.50;;;2.57;;
59161;SDS011;44942;48.936;8.260;2024-03-22T02:27:29;2.97;;;2.40;;
59161;SDS011;44942;48.936;8.260;2024-03-22T02:32:29;2.87;;;2.50;;
59161;SDS011;44942;48.936;8.260;2024-03-22T02:37:30;3.40;;;2.33;;
59161;SDS011;44942;48.936;8.260;2024-03-22T02:42:32;2.60;;;2.40;;
59161;SDS011;44942;48.936;8.260;2024-03-22T02:47:32;3.20;;;2.23;;
59161;SDS011;44942;48.936;8.260;2024-03-22T02:52:33;6.57;;;3.00;;
59161;SDS011;44942;48.936;8.260;2024-03-22T02:57:33;5.10;;;2.77;;
59161;SDS011;44942;48.936;8.260;2024-03-22T03:02:34;3.10;;;2.50;;
59161;SDS011;44942;48.936;8.260;2024-03-22T03:07:35;2.92;;;2.45;;
59161;SDS011;44942;48.936;8.260;2024-03-22T03:12:38;4.85;;;3.00;;
59161;SDS011;44942;48.936;8.260;2024-03-22T03:17:39;2.67;;;2.40;;
59161;SDS011;44942;48.936;8.260;2024-03-22T03:22:40;5.05;;;2.70;;
59161;SDS011;44942;48.936;8.260;2024-03-22T03:27:40;3.58;;;3.00;;
59161;SDS011;44942;48.936;8.260;2024-03-22T03:32:41;10.30;;;6.60;;
59161;SDS011;44942;48.936;8.260;2024-03-22T03:37:41;21.23;;;12.77;;
59161;SDS011;44942;48.936;8.260;2024-03-22T03:42:42;28.63;;;17.23;;
59161;SDS011;44942;48.936;8.260;2024-03-22T03:47:42;35.77;;;20.00;;
59161;SDS011;44942;48.936;8.260;2024-03-22T03:52:43;30.20;;;18.33;;
59161;SDS011;44942;48.936;8.260;2024-03-22T03:57:43;31.33;;;18.63;;
59161;SDS011;44942;48.936;8.260;2024-03-22T04:02:44;33.67;;;19.07;;
59161;SDS011;44942;48.936;8.260;2024-03-22T04:07:47;32.23;;;19.20;;
59161;SDS011;44942;48.936;8.260;2024-03-22T04:12:47;33.08;;;19.58;;
59161;SDS011;44942;48.936;8.260;2024-03-22T04:17:48;33.90;;;19.40;;
59161;SDS011;44942;48.936;8.260;2024-03-22T04:22:48;35.77;;;19.93;;
59161;SDS011;44942;48.936;8.260;2024-03-22T04:27:52;33.67;;;19.77;;
59161;SDS011;44942;48.936;8.260;2024-03-22T04:32:52;35.23;;;19.67;;
59161;SDS011;44942;48.936;8.260;2024-03-22T04:37:53;34.33;;;20.20;;
59161;SDS011;44942;48.936;8.260;2024-03-22T04:42:53;34.43;;;20.30;;
59161;SDS011;44942;48.936;8.260;2024-03-22T04:47:54;35.30;;;21.00;;
59161;SDS011;44942;48.936;8.260;2024-03-22T04:52:54;37.47;;;20.53;;
59161;SDS011;44942;48.936;8.260;2024-03-22T04:57:55;34.10;;;20.52;;
59161;SDS011;44942;48.936;8.260;2024-03-22T05:02:55;30.43;;;18.90;;
59161;SDS011;44942;48.936;8.260;2024-03-22T05:07:56;35.43;;;20.37;;
59161;SDS011;44942;48.936;8.260;2024-03-22T05:12:57;32.50;;;18.67;;
59161;SDS011;44942;48.936;8.260;2024-03-22T05:17:58;32.00;;;19.13;;
59161;SDS011;44942;48.936;8.260;2024-03-22T05:22:59;30.35;;;17.67;;
59161;SDS011;44942;48.936;8.260;2024-03-22T05:27:59;32.10;;;18.20;;
59161;SDS011;44942;48.936;8.260;2024-03-22T05:33:00;28.20;;;17.42;;
59161;SDS011;44942;48.936;8.260;2024-03-22T05:38:01;29.80;;;17.40;;
59161;SDS011;44942;48.936;8.260;2024-03-22T05:43:02;24.63;;;15.23;;
59161;SDS011;44942;48.936;8.260;2024-03-22T05:48:02;30.27;;;15.85;;
59161;SDS011;44942;48.936;8.260;2024-03-22T05:53:03;21.50;;;13.50;;
59161;SDS011;44942;48.936;8.260;2024-03-22T05:58:04;20.10;;;12.70;;
59161;SDS011;44942;48.936;8.260;2024-03-22T06:03:04;22.33;;;12.02;;
59161;SDS011;44942;48.936;8.260;2024-03-22T06:08:05;20.73;;;11.97;;
59161;SDS011;44942;48.936;8.260;2024-03-22T06:18:07;18.97;;;11.30;;
59161;SDS011;44942;48.936;8.260;2024-03-22T06:23:07;17.67;;;10.93;;
59161;SDS011;44942;48.936;8.260;2024-03-22T06:28:08;18.60;;;11.35;;
59161;SDS011;44942;48.936;8.260;2024-03-22T06:33:09;17.37;;;11.07;;
59161;SDS011;44942;48.936;8.260;2024-03-22T06:38:09;14.93;;;10.40;;
59161;SDS011;44942;48.936;8.260;2024-03-22T06:43:10;15.77;;;9.90;;
59161;SDS011;44942;48.936;8.260;2024-03-22T06:48:10;17.43;;;9.70;;
59161;SDS011;44942;48.936;8.260;2024-03-22T06:53:11;13.30;;;8.83;;
59161;SDS011;44942;48.936;8.260;2024-03-22T06:58:12;13.10;;;8.45;;
59161;SDS011;44942;48.936;8.260;2024-03-22T07:03:12;13.77;;;8.10;;
59161;SDS011;44942;48.936;8.260;2024-03-22T07:13:14;11.97;;;8.17;;
59161;SDS011;44942;48.936;8.260;2024-03-22T07:18:15;10.30;;;7.00;;
59161;SDS011;44942;48.936;8.260;2024-03-22T07:23:16;12.55;;;8.00;;
59161;SDS011;44942;48.936;8.260;2024-03-22T07:28:16;12.80;;;7.50;;
59161;SDS011;44942;48.936;8.260;2024-03-22T07:33:17;11.20;;;7.50;;
59161;SDS011;44942;48.936;8.260;2024-03-22T07:38:18;16.20;;;7.82;;
59161;SDS011;44942;48.936;8.260;2024-03-22T07:43:18;13.20;;;7.40;;
59161;SDS011;44942;48.936;8.260;2024-03-22T07:48:19;13.10;;;6.73;;
59161;SDS011;44942;48.936;8.260;2024-03-22T07:53:19;15.23;;;7.20;;
59161;SDS011;44942;48.936;8.260;2024-03-22T07:58:20;13.87;;;7.37;;
59161;SDS011;44942;48.936;8.260;2024-03-22T08:03:20;9.25;;;6.93;;
59161;SDS011;44942;48.936;8.260;2024-03-22T08:08:21;9.40;;;6.60;;
59161;SDS011;44942;48.936;8.260;2024-03-22T08:13:21;9.83;;;6.47;;
59161;SDS011;44942;48.936;8.260;2024-03-22T08:18:22;11.20;;;6.85;;
59161;SDS011;44942;48.936;8.260;2024-03-22T08:23:23;10.10;;;6.23;;
59161;SDS011;44942;48.936;8.260;2024-03-22T08:28:23;11.33;;;6.27;;
59161;SDS011;44942;48.936;8.260;2024-03-22T08:33:24;10.07;;;5.38;;
59161;SDS011;44942;48.936;8.260;2024-03-22T08:38:24;9.93;;;5.87;;
59161;SDS011;44942;48.936;8.260;2024-03-22T08:48:29;9.02;;;5.38;;
59161;SDS011;44942;48.936;8.260;2024-03-22T08:53:29;8.77;;;5.60;;
59161;SDS011;44942;48.936;8.260;2024-03-22T08:58:30;8.50;;;5.63;;
59161;SDS011;44942;48.936;8.260;2024-03-22T09:03:30;11.67;;;5.90;;
59161;SDS011;44942;48.936;8.260;2024-03-22T09:08:31;6.87;;;5.37;;
59161;SDS011;44942;48.936;8.260;2024-03-22T09:13:33;6.93;;;5.05;;
59161;SDS011;44942;48.936;8.260;2024-03-22T09:18:35;7.35;;;5.43;;
59161;SDS011;44942;48.936;8.260;2024-03-22T09:23:35;7.28;;;5.10;;
59161;SDS011;44942;48.936;8.260;2024-03-22T09:28:36;7.63;;;5.25;;
59161;SDS011;44942;48.936;8.260;2024-03-22T09:33:37;7.75;;;5.10;;
59161;SDS011;44942;48.936;8.260;2024-03-22T09:38:38;5.00;;;4.15;;
59161;SDS011;44942;48.936;8.260;2024-03-22T09:43:38;5.38;;;4.40;;
59161;SDS011;44942;48.936;8.260;2024-03-22T09:48:39;4.65;;;4.20;;
59161;SDS011;44942;48.936;8.260;2024-03-22T09:53:42;4.45;;;3.60;;
59161;SDS011;44942;48.936;8.260;2024-03-22T09:58:44;6.22;;;4.20;;
59161;SDS011;44942;48.936;8.260;2024-03-22T10:03:45;6.93;;;4.10;;
59161;SDS011;44942;48.936;8.260;2024-03-22T10:08:46;6.28;;;5.50;;
59161;SDS011;44942;48.936;8.260;2024-03-22T10:13:46;6.23;;;5.17;;
59161;SDS011;44942;48.936;8.260;2024-03-22T10:18:51;8.75;;;6.53;;
59161;SDS011;44942;48.936;8.260;2024-03-22T10:23:53;7.30;;;5.77;;
59161;SDS011;44942;48.936;8.260;2024-03-22T10:28:53;7.13;;;5.32;;
59161;SDS011;44942;48.936;8.260;2024-03-22T10:33:54;5.87;;;5.30;;
59161;SDS011;44942;48.936;8.260;2024-03-22T10:38:55;8.27;;;5.82;;
59161;SDS011;44942;48.936;8.260;2024-03-22T10:43:57;6.40;;;4.88;;
59161;SDS011;44942;48.936;8.260;2024-03-22T10:48:58;7.03;;;5.10;;
59161;SDS011;44942;48.936;8.260;2024-03-22T10:53:58;6.47;;;4.93;;
59161;SDS011;44942;48.936;8.260;2024-03-22T10:59:04;6.78;;;5.13;;
59161;SDS011;44942;48.936;8.260;2024-03-22T11:04:05;7.28;;;4.50;;
59161;SDS011;44942;48.936;8.260;2024-03-22T11:09:12;8.15;;;4.22;;
59161;SDS011;44942;48.936;8.260;2024-03-22T11:14:21;5.40;;;3.88;;
59161;SDS011;44942;48.936;8.260;2024-03-22T11:19:23;7.13;;;4.18;;
59161;SDS011;44942;48.936;8.260;2024-03-22T11:24:24;3.90;;;3.50;;
59161;SDS011;44942;48.936;8.260;2024-03-22T11:29:24;5.27;;;3.33;;
59161;SDS011;44942;48.936;8.260;2024-03-22T11:34:25;4.15;;;3.45;;
59161;SDS011;44942;48.936;8.260;2024-03-22T11:39:26;5.30;;;3.67;;
59161;SDS011;44942;48.936;8.260;2024-03-22T11:44:26;4.50;;;3.30;;
59161;SDS011;44942;48.936;8.260;2024-03-22T11:49:27;3.92;;;3.30;;
59161;SDS011;44942;48.936;8.260;2024-03-22T11:54:28;12.00;;;3.10;;
59161;SDS011;44942;48.936;8.260;2024-03-22T11:59:29;5.10;;;3.13;;
59161;SDS011;44942;48.936;8.260;2024-03-22T12:09:33;4.30;;;2.70;;
59161;SDS011;44942;48.936;8.260;2024-03-22T12:14:34;3.70;;;2.60;;
59161;SDS011;44942;48.936;8.260;2024-03-22T12:19:34;2.72;;;2.38;;
59161;SDS011;44942;48.936;8.260;2024-03-22T12:24:35;3.47;;;2.40;;
59161;SDS011;44942;48.936;8.260;2024-03-22T12:29:36;3.42;;;2.47;;
59161;SDS011;44942;48.936;8.260;2024-03-22T12:34:37;3.97;;;2.13;;
59161;SDS011;44942;48.936;8.260;2024-03-22T12:39:37;2.60;;;2.40;;
59161;SDS011;44942;48.936;8.260;2024-03-22T12:44:38;3.80;;;2.30;;
59161;SDS011;44942;48.936;8.260;2024-03-22T12:49:38;3.57;;;2.60;;
59161;SDS011;44942;48.936;8.260;2024-03-22T12:54:39;2.50;;;2.30;;
59161;SDS011;44942;48.936;8.260;2024-03-22T12:59:39;2.43;;;2.23;;
59161;SDS011;44942;48.936;8.260;2024-03-22T13:04:40;2.70;;;2.50;;
59161;SDS011;44942;48.936;8.260;2024-03-22T13:09:41;6.00;;;2.30;;
59161;SDS011;44942;48.936;8.260;2024-03-22T13:14:41;5.10;;;2.03;;
59161;SDS011;44942;48.936;8.260;2024-03-22T13:19:44;8.38;;;2.65;;
59161;SDS011;44942;48.936;8.260;2024-03-22T13:24:45;6.77;;;2.50;;
59161;SDS011;44942;48.936;8.260;2024-03-22T13:29:46;5.05;;;2.70;;
59161;SDS011;44942;48.936;8.260;2024-03-22T13:34:47;7.93;;;2.70;;
59161;SDS011;44942;48.936;8.260;2024-03-22T13:39:50;7.82;;;2.88;;
59161;SDS011;44942;48.936;8.260;2024-03-22T13:44:51;8.13;;;2.50;;
59161;SDS011;44942;48.936;8.260;2024-03-22T13:49:52;5.55;;;2.45;;
59161;SDS011;44942;48.936;8.260;2024-03-22T13:54:52;2.67;;;2.25;;
59161;SDS011;44942;48.936;8.260;2024-03-22T13:59:53;3.30;;;2.20;;
59161;SDS011;44942;48.936;8.260;2024-03-22T14:04:54;2.42;;;1.83;;
59161;SDS011;44942;48.936;8.260;2024-03-22T14:09:54;4.47;;;2.23;;
59161;SDS011;44942;48.936;8.260;2024-03-22T14:14:55;2.73;;;2.23;;
59161;SDS011;44942;48.936;8.260;2024-03-22T14:19:55;3.83;;;2.47;;
59161;SDS011;44942;48.936;8.260;2024-03-22T14:24:56;3.60;;;2.20;;
59161;SDS011;44942;48.936;8.260;2024-03-22T14:29:59;2.95;;;1.83;;
59161;SDS011;44942;48.936;8.260;2024-03-22T14:35:00;3.97;;;1.88;;
59161;SDS011;44942;48.936;8.260;2024-03-22T14:40:00;2.80;;;2.00;;
59161;SDS011;44942;48.936;8.260;2024-03-22T14:45:04;3.05;;;1.92;;
59161;SDS011;44942;48.936;8.260;2024-03-22T14:50:06;3.58;;;1.90;;
59161;SDS011;44942;48.936;8.260;2024-03-22T14:55:07;4.10;;;1.67;;
59161;SDS011;44942;48.936;8.260;2024-03-22T15:00:08;3.65;;;1.90;;
59161;SDS011;44942;48.936;8.260;2024-03-22T15:05:13;2.75;;;1.60;;
59161;SDS011;44942;48.936;8.260;2024-03-22T15:10:14;2.25;;;1.73;;
59161;SDS011;44942;48.936;8.260;2024-03-22T15:15:14;2.88;;;1.70;;
59161;SDS011;44942;48.936;8.260;2024-03-22T15:20:15;2.60;;;1.50;;
59161;SDS011;44942;48.936;8.260;2024-03-22T15:25:16;3.47;;;1.60;;
59161;SDS011;44942;48.936;8.260;2024-03-22T15:35:18;2.07;;;1.60;;
59161;SDS011;44942;48.936;8.260;2024-03-22T15:40:21;1.80;;;1.60;;
59161;SDS011;44942;48.936;8.260;2024-03-22T15:45:22;5.05;;;1.50;;
59161;SDS011;44942;48.936;8.260;2024-03-22T15:50:23;1.80;;;1.37;;
59161;SDS011;44942;48.936;8.260;2024-03-22T15:55:23;3.87;;;1.50;;
59161;SDS011;44942;48.936;8.260;2024-03-22T16:00:24;3.57;;;1.33;;
59161;SDS011;44942;48.936;8.260;2024-03-22T16:05:26;5.07;;;1.40;;
59161;SDS011;44942;48.936;8.260;2024-03-22T16:10:27;5.25;;;1.65;;
59161;SDS011;44942;48.936;8.260;2024-03-22T16:15:28;1.80;;;1.40;;
59161;SDS011;44942;48.936;8.260;2024-03-22T16:20:28;1.77;;;1.30;;
59161;SDS011;44942;48.936;8.260;2024-03-22T16:25:29;2.93;;;1.60;;
59161;SDS011;44942;48.936;8.260;2024-03-22T16:30:30;1.77;;;1.40;;
59161;SDS011;44942;48.936;8.260;2024-03-22T16:35:31;1.63;;;1.52;;
59161;SDS011;44942;48.936;8.260;2024-03-22T16:40:34;1.63;;;1.40;;
59161;SDS011;44942;48.936;8.260;2024-03-22T16:45:35;2.40;;;1.40;;
59161;SDS011;44942;48.936;8.260;2024-03-22T16:50:39;1.60;;;1.33;;
59161;SDS011;44942;48.936;8.260;2024-03-22T16:55:43;1.65;;;1.50;;
59161;SDS011;44942;48.936;8.260;2024-03-22T17:00:44;1.52;;;1.23;;
59161;SDS011;44942;48.936;8.260;2024-03-22T17:05:46;2.47;;;1.80;;
59161;SDS011;44942;48.936;8.260;2024-03-22T17:10:46;2.60;;;2.20;;
59161;SDS011;44942;48.936;8.260;2024-03-22T17:15:47;2.95;;;1.60;;
59161;SDS011;44942;48.936;8.260;2024-03-22T17:20:48;2.13;;;1.60;;
59161;SDS011;44942;48.936;8.260;2024-03-22T17:25:49;1.80;;;1.45;;
59161;SDS011;44942;48.936;8.260;2024-03-22T17:30:57;2.22;;;1.50;;
59161;SDS011;44942;48.936;8.260;2024-03-22T17:35:59;2.03;;;1.50;;
59161;SDS011;44942;48.936;8.260;2024-03-22T17:40:59;1.70;;;1.43;;
59161;SDS011;44942;48.936;8.260;2024-03-22T17:46:01;1.50;;;1.40;;
59161;SDS011;44942;48.936;8.260;2024-03-22T17:51:03;1.70;;;1.50;;
59161;SDS011;44942;48.936;8.260;2024-03-22T17:56:04;2.08;;;1.63;;
59161;SDS011;44942;48.936;8.260;2024-03-22T18:01:07;1.48;;;1.38;;
59161;SDS011;44942;48.936;8.260;2024-03-22T18:06:07;6.43;;;4.07;;
59161;SDS011;44942;48.936;8.260;2024-03-22T18:11:08;11.03;;;5.60;;
59161;SDS011;44942;48.936;8.260;2024-03-22T18:16:08;16.10;;;7.37;;
59161;SDS011;44942;48.936;8.260;2024-03-22T18:21:09;13.33;;;6.57;;
59161;SDS011;44942;48.936;8.260;2024-03-22T18:26:10;15.77;;;7.15;;
59161;SDS011;44942;48.936;8.260;2024-03-22T18:31:11;19.87;;;6.93;;
59161;SDS011;44942;48.936;8.260;2024-03-22T18:36:11;14.53;;;6.33;;
59161;SDS011;44942;48.936;8.260;2024-03-22T18:41:12;16.55;;;6.70;;
59161;SDS011;44942;48.936;8.260;2024-03-22T18:46:13;12.47;;;5.37;;
59161;SDS011;44942;48.936;8.260;2024-03-22T18:51:13;13.27;;;5.63;;
59161;SDS011;44942;48.936;8.260;2024-03-22T18:56:15;12.27;;;5.35;;
59161;SDS011;44942;48.936;8.260;2024-03-22T19:01:16;12.88;;;4.95;;
59161;SDS011;44942;48.936;8.260;2024-03-22T19:06:16;11.63;;;4.67;;
59161;SDS011;44942;48.936;8.260;2024-03-22T19:11:17;8.70;;;4.40;;
59161;SDS011;44942;48.936;8.260;2024-03-22T19:16:17;11.33;;;4.47;;
59161;SDS011;44942;48.936;8.260;2024-03-22T19:21:18;7.97;;;4.18;;
59161;SDS011;44942;48.936;8.260;2024-03-22T19:26:19;7.55;;;4.00;;
59161;SDS011;44942;48.936;8.260;2024-03-22T19:31:19;8.68;;;3.95;;
59161;SDS011;44942;48.936;8.260;2024-03-22T19:36:20;7.32;;;3.95;;
59161;SDS011;44942;48.936;8.260;2024-03-22T19:41:25;7.40;;;3.72;;
59161;SDS011;44942;48.936;8.260;2024-03-22T19:46:29;8.68;;;4.00;;
59161;SDS011;44942;48.936;8.260;2024-03-22T19:51:30;8.88;;;4.63;;
59161;SDS011;44942;48.936;8.260;2024-03-22T19:56:31;7.65;;;5.15;;
59161;SDS011;44942;48.936;8.260;2024-03-22T20:01:31;9.87;;;4.67;;
59161;SDS011;44942;48.936;8.260;2024-03-22T20:06:33;7.40;;;4.38;;
59161;SDS011;44942;48.936;8.260;2024-03-22T20:11:34;6.10;;;3.80;;
59161;SDS011;44942;48.936;8.260;2024-03-22T20:16:35;8.57;;;4.20;;
59161;SDS011;44942;48.936;8.260;2024-03-22T20:21:36;6.77;;;3.93;;
59161;SDS011;44942;48.936;8.260;2024-03-22T20:26:36;6.27;;;3.57;;
59161;SDS011;44942;48.936;8.260;2024-03-22T20:31:37;5.97;;;3.53;;
59161;SDS011;44942;48.936;8.260;2024-03-22T20:36:41;5.95;;;3.38;;
